Time;durP1;ratioP1;P1;durP2;ratioP2;P2;SDS_P1;SDS_P2;PMS_P1;PMS_P2;Temp;Humidity;BMP_temperature;BMP_pressure;BME280_temperature;BME280_humidity;BME280_pressure;Samples;Min_cycle;Max_cycle;Signal;HPM_P1;HPM_P2
2022/11/25 00:01:38;;;;;;;6.03;4.70;;;;;;;3.53;100.00;152270.59;4974891;28;20879;-86
2022/11/25 00:04:23;;;;;;;8.70;4.40;;;;;;;3.51;100.00;152266.75;4941212;29;20431;-86
2022/11/25 00:07:09;;;;;;;5.93;4.50;;;;;;;3.49;100.00;152261.59;4955877;28;20458;-86
2022/11/25 00:09:56;;;;;;;5.53;4.27;;;;;;;3.44;100.00;152248.69;4968695;28;20474;-86
2022/11/25 00:12:41;;;;;;;5.80;4.47;;;;;;;3.42;100.00;152242.25;4967867;28;20486;-86
2022/11/25 00:15:26;;;;;;;6.03;4.43;;;;;;;3.45;100.00;152251.28;4956354;28;20474;-87
2022/11/25 00:18:12;;;;;;;4.40;3.83;;;;;;;3.44;100.00;152248.69;4970317;28;20804;-86
2022/11/25 00:20:57;;;;;;;10.20;4.83;;;;;;;3.44;100.00;152248.69;4973115;28;20544;-86
2022/11/25 00:23:43;;;;;;;5.20;4.47;;;;;;;3.41;100.00;152239.72;4973940;28;20491;-86
2022/11/25 00:26:32;;;;;;;5.13;3.90;;;;;;;3.39;100.00;152235.81;4972389;28;20417;-87
2022/11/25 00:29:18;;;;;;;6.93;3.73;;;;;;;3.39;100.00;152234.59;4973506;28;20441;-86
2022/11/25 00:32:03;;;;;;;9.27;5.00;;;;;;;3.35;100.00;152225.56;4959531;28;20445;-86
2022/11/25 00:34:51;;;;;;;9.90;4.57;;;;;;;3.29;100.00;152210.09;4978159;28;20534;-86
2022/11/25 00:37:37;;;;;;;4.83;3.80;;;;;;;3.26;100.00;152202.38;4973534;28;20921;-86
2022/11/25 00:40:23;;;;;;;6.23;4.63;;;;;;;3.30;100.00;152211.41;4959300;28;20517;-86
2022/11/25 00:46:26;;;;;;;6.30;4.00;;;;;;;3.26;100.00;152202.38;4947434;28;20479;-86
2022/11/25 00:49:12;;;;;;;5.63;3.70;;;;;;;3.26;100.00;152202.38;4952367;29;20438;-86
2022/11/25 00:51:57;;;;;;;3.83;3.40;;;;;;;3.26;100.00;152201.06;4968652;28;20516;-86
2022/11/25 00:54:43;;;;;;;5.70;3.73;;;;;;;3.24;100.00;152197.22;4972463;28;20457;-86
2022/11/25 00:57:29;;;;;;;4.40;3.60;;;;;;;3.24;100.00;152197.22;4968871;28;20827;-86
2022/11/25 01:00:17;;;;;;;5.23;3.90;;;;;;;3.24;100.00;152195.94;4959856;28;20518;-86
2022/11/25 01:03:02;;;;;;;5.07;3.43;;;;;;;3.22;100.00;152192.09;4955202;28;20442;-86
2022/11/25 01:05:48;;;;;;;11.63;4.40;;;;;;;3.19;100.00;152184.38;4975389;28;20454;-86
2022/11/25 01:08:34;;;;;;;5.93;4.30;;;;;;;3.23;100.00;152194.63;4966350;28;20443;-86
2022/11/25 01:11:21;;;;;;;9.47;4.70;;;;;;;3.22;100.00;152192.09;4964615;28;20473;-86
2022/11/25 01:14:07;;;;;;;5.47;4.30;;;;;;;3.27;100.00;152204.97;4976331;28;20593;-86
2022/11/25 01:16:54;;;;;;;6.27;4.23;;;;;;;3.28;100.00;152207.56;4954440;28;20810;-86
2022/11/25 01:19:40;;;;;;;4.37;3.70;;;;;;;3.28;100.00;152206.25;4973108;28;20457;-86
2022/11/25 01:22:26;;;;;;;5.67;4.40;;;;;;;3.28;100.00;152207.56;4955444;28;20536;-86
2022/11/25 01:25:11;;;;;;;5.87;4.23;;;;;;;3.37;100.00;152230.69;4974457;28;20581;-86
2022/11/25 01:27:57;;;;;;;5.47;4.77;;;;;;;3.42;100.00;152242.25;4972771;28;20565;-86
2022/11/25 01:30:42;;;;;;;6.00;3.27;;;;;;;3.45;100.00;152250.00;4952159;29;20510;-86
2022/11/25 01:33:31;;;;;;;4.60;3.83;;;;;;;3.44;100.00;152248.69;4954100;29;21042;-86
2022/11/25 01:36:17;;;;;;;6.00;4.87;;;;;;;3.44;100.00;152248.69;4947463;28;21010;-86
2022/11/25 01:39:03;;;;;;;6.73;3.90;;;;;;;3.44;100.00;152248.69;4975247;28;20499;-86
2022/11/25 01:41:49;;;;;;;6.47;4.00;;;;;;;3.47;100.00;152256.44;4974342;28;20441;-86
2022/11/25 01:44:36;;;;;;;6.80;4.37;;;;;;;3.49;100.00;152260.31;4980269;28;20508;-86
2022/11/25 01:47:23;;;;;;;7.13;4.50;;;;;;;3.48;100.00;152259.00;4985660;28;20436;-86
2022/11/25 01:50:10;;;;;;;7.17;4.73;;;;;;;3.49;100.00;152260.31;4972197;28;20458;-86
2022/11/25 01:52:56;;;;;;;4.37;3.90;;;;;;;3.52;100.00;152269.28;4957799;28;20453;-86
2022/11/25 01:55:43;;;;;;;5.73;3.83;;;;;;;3.55;100.00;152275.72;4958068;28;20484;-86
2022/11/25 01:58:30;;;;;;;5.00;3.80;;;;;;;3.55;100.00;152277.03;4975283;28;20493;-86
2022/11/25 02:01:17;;;;;;;8.23;4.70;;;;;;;3.57;100.00;152280.91;4956221;28;20438;-86
2022/11/25 02:04:03;;;;;;;7.50;5.10;;;;;;;3.56;100.00;152279.63;4959056;28;20796;-86
2022/11/25 02:06:53;;;;;;;8.30;4.93;;;;;;;3.56;100.00;152279.63;4941626;28;20464;-86
2022/11/25 02:09:41;;;;;;;7.37;5.00;;;;;;;3.53;100.00;152271.88;4959750;28;20445;-86
2022/11/25 02:12:27;;;;;;;6.60;4.93;;;;;;;3.55;100.00;152277.03;4978929;28;20484;-86
2022/11/25 02:15:16;;;;;;;6.30;5.10;;;;;;;3.53;100.00;152270.59;5004514;28;20499;-86
2022/11/25 02:18:01;;;;;;;11.07;6.37;;;;;;;3.51;100.00;152266.75;4992587;28;20784;-86
2022/11/25 02:20:47;;;;;;;5.63;5.13;;;;;;;3.51;100.00;152266.75;4976153;28;20512;-86
2022/11/25 02:23:40;;;;;;;7.23;4.70;;;;;;;3.49;100.00;152260.31;4990992;28;20448;-86
2022/11/25 02:26:28;;;;;;;11.10;5.10;;;;;;;3.45;100.00;152251.28;4976902;28;20449;-87
2022/11/25 02:29:14;;;;;;;6.03;4.97;;;;;;;3.41;100.00;152241.00;4989215;28;20509;-86
2022/11/25 02:31:59;;;;;;;7.30;5.47;;;;;;;3.37;100.00;152229.41;5002304;28;20855;-86
2022/11/25 02:34:48;;;;;;;7.67;6.57;;;;;;;3.34;100.00;152222.97;4986411;28;20547;-86
2022/11/25 02:37:33;;;;;;;7.30;5.97;;;;;;;3.29;100.00;152208.81;4976592;28;20536;-86
2022/11/25 02:40:18;;;;;;;6.20;5.70;;;;;;;3.25;100.00;152198.53;4991798;28;20595;-86
2022/11/25 02:43:05;;;;;;;8.10;6.73;;;;;;;3.24;100.00;152195.94;4988181;28;20520;-86
2022/11/25 02:45:55;;;;;;;9.27;6.33;;;;;;;3.23;100.00;152194.63;4978841;28;20516;-86
2022/11/25 02:48:42;;;;;;;10.87;6.10;;;;;;;3.19;100.00;152183.06;4977656;28;20448;-86
2022/11/25 02:51:28;;;;;;;8.07;6.60;;;;;;;3.17;100.00;152179.22;4968259;28;20502;-86
2022/11/25 02:54:15;;;;;;;9.70;6.33;;;;;;;3.17;100.00;152177.94;4975574;28;20519;-86
2022/11/25 02:57:00;;;;;;;7.50;5.00;;;;;;;3.18;100.00;152181.78;4982136;28;20950;-87
2022/11/25 02:59:47;;;;;;;5.90;4.33;;;;;;;3.20;100.00;152186.97;4977211;28;20453;-86
2022/11/25 03:02:32;;;;;;;8.10;5.87;;;;;;;3.20;100.00;152185.66;4982590;28;20544;-86
2022/11/25 03:05:19;;;;;;;5.83;4.40;;;;;;;3.19;100.00;152184.38;4990819;28;20592;-87
2022/11/25 03:08:05;;;;;;;6.20;4.57;;;;;;;3.19;100.00;152184.38;4991843;28;20484;-86
2022/11/25 03:10:55;;;;;;;5.20;4.30;;;;;;;3.22;100.00;152192.09;4985002;28;20925;-86
2022/11/25 03:13:40;;;;;;;6.50;4.37;;;;;;;3.24;100.00;152195.94;4971665;28;20410;-86
2022/11/25 03:16:28;;;;;;;6.27;4.63;;;;;;;3.25;100.00;152199.81;4958250;28;20461;-86
2022/11/25 03:19:13;;;;;;;5.40;3.90;;;;;;;3.25;100.00;152199.81;4979959;28;20503;-86
2022/11/25 03:21:59;;;;;;;6.30;4.40;;;;;;;3.27;100.00;152204.97;4980352;28;20487;-87
2022/11/25 03:24:44;;;;;;;5.47;4.30;;;;;;;3.27;100.00;152204.97;4980219;28;20484;-86
2022/11/25 03:27:29;;;;;;;7.50;3.83;;;;;;;3.28;100.00;152207.56;4980716;28;20440;-86
2022/11/25 03:30:18;;;;;;;5.33;4.17;;;;;;;3.26;100.00;152201.06;4990857;28;20539;-86
2022/11/25 03:33:06;;;;;;;7.47;4.43;;;;;;;3.23;100.00;152194.63;4993299;28;20925;-86
2022/11/25 03:35:52;;;;;;;7.57;4.90;;;;;;;3.21;100.00;152189.50;4980189;28;20539;-87
2022/11/25 03:38:39;;;;;;;6.20;4.50;;;;;;;3.21;100.00;152189.50;4993371;28;20475;-86
2022/11/25 03:41:24;;;;;;;5.83;4.83;;;;;;;3.22;100.00;152192.09;4980947;28;20963;-87
2022/11/25 03:44:09;;;;;;;4.90;3.47;;;;;;;3.20;100.00;152186.97;4980642;28;20572;-86
2022/11/25 03:46:55;;;;;;;5.43;4.57;;;;;;;3.19;100.00;152184.38;4993360;28;20963;-86
2022/11/25 03:49:42;;;;;;;5.87;4.40;;;;;;;3.13;100.00;152168.91;4995468;28;20849;-86
2022/11/25 03:52:28;;;;;;;5.23;4.07;;;;;;;3.11;100.00;152162.47;4975825;28;20398;-87
2022/11/25 03:55:14;;;;;;;5.87;5.17;;;;;;;3.10;100.00;152161.19;4995496;28;20502;-87
2022/11/25 03:58:03;;;;;;;6.80;5.50;;;;;;;3.04;100.00;152145.78;5006438;28;20467;-87
2022/11/25 04:00:48;;;;;;;7.27;5.67;;;;;;;3.04;100.00;152147.03;4999111;28;20551;-86
2022/11/25 04:03:33;;;;;;;7.77;5.33;;;;;;;3.05;100.00;152148.31;4980167;28;20488;-86
2022/11/25 04:06:22;;;;;;;6.60;5.90;;;;;;;3.04;100.00;152145.78;4993596;28;20452;-86
2022/11/25 04:09:10;;;;;;;7.00;5.70;;;;;;;2.98;100.00;152130.31;4990654;28;20512;-86
2022/11/25 04:15:10;;;;;;;7.77;6.83;;;;;;;2.88;100.00;152104.59;4975451;28;20513;-87
2022/11/25 04:17:57;;;;;;;8.90;6.63;;;;;;;2.84;100.00;152094.28;4984048;28;20951;-86
2022/11/25 04:20:43;;;;;;;6.80;5.80;;;;;;;2.79;100.00;152081.44;4995602;28;20484;-87
2022/11/25 04:23:31;;;;;;;8.47;6.57;;;;;;;2.73;100.00;152065.97;4979947;28;20436;-87
2022/11/25 04:26:24;;;;;;;9.13;7.33;;;;;;;2.68;100.00;152053.13;4992986;28;20441;-86
2022/11/25 04:29:09;;;;;;;9.83;7.03;;;;;;;2.62;100.00;152038.97;4995252;28;20655;-86
2022/11/25 04:31:54;;;;;;;9.00;7.20;;;;;;;2.55;100.00;152019.69;4979583;28;20433;-86
2022/11/25 04:34:40;;;;;;;9.33;7.83;;;;;;;2.53;100.00;152014.56;4978830;28;21015;-86
2022/11/25 04:37:26;;;;;;;13.63;8.17;;;;;;;2.49;100.00;152004.28;4987703;28;21021;-86
2022/11/25 04:40:14;;;;;;;8.57;7.40;;;;;;;2.47;100.00;152001.69;4991390;28;20624;-86
2022/11/25 04:43:05;;;;;;;10.70;8.07;;;;;;;2.45;100.00;151996.56;4992083;28;20608;-86
2022/11/25 04:45:51;;;;;;;9.97;7.27;;;;;;;2.50;100.00;152006.84;4991570;28;20964;-86
2022/11/25 04:48:36;;;;;;;14.40;8.50;;;;;;;2.55;100.00;152019.69;4977495;28;20586;-86
2022/11/25 04:51:22;;;;;;;13.30;8.30;;;;;;;2.61;100.00;152035.13;4979323;28;20948;-86
2022/11/25 04:54:11;;;;;;;15.53;8.47;;;;;;;2.62;100.00;152037.72;4988292;28;20462;-86
2022/11/25 04:56:57;;;;;;;11.20;7.90;;;;;;;2.68;100.00;152053.13;4977553;28;20972;-86
2022/11/25 04:59:44;;;;;;;10.73;8.10;;;;;;;2.73;100.00;152067.28;4980314;28;20468;-86
2022/11/25 05:02:32;;;;;;;11.63;8.53;;;;;;;2.73;100.00;152065.97;4992906;28;20487;-85
2022/11/25 05:05:30;;;;;;;10.70;7.90;;;;;;;2.73;100.00;152067.28;5025815;28;20444;-85
2022/11/25 05:08:16;;;;;;;9.50;8.20;;;;;;;2.75;100.00;152071.16;4997279;28;20553;-86
2022/11/25 05:11:02;;;;;;;9.70;8.40;;;;;;;2.73;100.00;152065.97;4978975;28;20532;-85
2022/11/25 05:13:48;;;;;;;12.90;7.77;;;;;;;2.70;100.00;152058.31;4991849;28;20452;-86
2022/11/25 05:16:34;;;;;;;10.80;8.23;;;;;;;2.68;100.00;152053.13;4990517;28;20859;-86
2022/11/25 05:19:19;;;;;;;11.40;8.20;;;;;;;2.63;100.00;152040.25;4975476;28;20460;-85
2022/11/25 05:22:05;;;;;;;9.77;7.33;;;;;;;2.59;100.00;152030.00;4990608;28;20459;-85
2022/11/25 05:24:51;;;;;;;8.43;7.57;;;;;;;2.54;100.00;152018.44;4999063;28;20519;-85
2022/11/25 05:27:37;;;;;;;7.97;7.10;;;;;;;2.56;100.00;152022.28;4977290;28;20918;-85
2022/11/25 05:30:27;;;;;;;12.70;8.10;;;;;;;2.58;100.00;152028.72;4975468;28;20438;-85
2022/11/25 05:33:14;;;;;;;9.70;6.70;;;;;;;2.60;100.00;152032.53;4973455;28;20410;-85
2022/11/25 05:36:01;;;;;;;8.30;6.90;;;;;;;2.56;100.00;152022.28;4983456;28;20460;-85
2022/11/25 05:38:53;;;;;;;8.13;6.83;;;;;;;2.58;100.00;152027.41;4983450;28;20437;-85
2022/11/25 05:41:48;;;;;;;11.43;6.93;;;;;;;2.56;100.00;152022.28;4980108;28;20410;-85
2022/11/25 05:44:33;;;;;;;7.00;6.30;;;;;;;2.49;100.00;152004.28;4991049;28;20435;-85
2022/11/25 05:47:20;;;;;;;10.00;7.03;;;;;;;2.46;100.00;151999.09;4977622;28;20980;-85
2022/11/25 05:50:07;;;;;;;9.20;6.83;;;;;;;2.44;100.00;151993.97;4985462;28;20560;-85
2022/11/25 05:52:56;;;;;;;8.47;7.10;;;;;;;2.42;100.00;151988.84;4983122;28;20454;-86
2022/11/25 05:55:42;;;;;;;10.43;7.50;;;;;;;2.38;100.00;151978.53;4984076;28;20596;-87
2022/11/25 05:58:37;;;;;;;8.60;6.63;;;;;;;2.35;100.00;151970.84;4998146;28;20441;-86
2022/11/25 06:01:26;;;;;;;11.13;8.33;;;;;;;2.35;100.00;151970.84;4987839;28;20482;-84
2022/11/25 06:04:14;;;;;;;8.07;6.70;;;;;;;2.32;100.00;151963.13;4991189;28;20457;-83
2022/11/25 06:07:00;;;;;;;10.60;6.30;;;;;;;2.33;100.00;151964.44;5003710;28;20496;-84
2022/11/25 06:09:47;;;;;;;15.30;6.93;;;;;;;2.37;100.00;151974.69;4977422;28;20444;-85
2022/11/25 06:12:34;;;;;;;7.70;6.90;;;;;;;2.33;100.00;151965.66;4990546;28;20471;-86
2022/11/25 06:15:19;;;;;;;8.67;7.37;;;;;;;2.31;100.00;151960.53;4989624;28;20964;-86
2022/11/25 06:18:06;;;;;;;9.10;7.80;;;;;;;2.31;100.00;151959.25;4983688;28;20523;-86
2022/11/25 06:20:57;;;;;;;10.57;7.90;;;;;;;2.30;100.00;151957.94;4971398;28;20453;-85
2022/11/25 06:23:44;;;;;;;11.07;7.00;;;;;;;2.32;100.00;151961.84;4991458;28;20441;-85
2022/11/25 06:26:32;;;;;;;6.93;6.03;;;;;;;2.35;100.00;151970.84;4991686;28;20912;-86
2022/11/25 06:29:18;;;;;;;7.83;6.33;;;;;;;2.38;100.00;151978.53;4992542;28;20461;-86
2022/11/25 06:32:08;;;;;;;6.53;5.83;;;;;;;2.41;100.00;151986.25;4976721;28;20511;-86
2022/11/25 06:35:01;;;;;;;8.17;6.17;;;;;;;2.43;100.00;151990.13;4977106;28;20468;-86
2022/11/25 06:38:00;;;;;;;6.23;5.57;;;;;;;2.46;100.00;151999.09;4977346;28;20469;-86
2022/11/25 06:40:45;;;;;;;7.73;5.90;;;;;;;2.52;100.00;152011.97;4989764;28;21059;-86
2022/11/25 06:43:31;;;;;;;7.97;5.90;;;;;;;2.50;100.00;152006.84;5004493;28;20460;-85
2022/11/25 06:46:18;;;;;;;7.87;6.40;;;;;;;2.53;100.00;152015.84;5018360;28;20443;-85
2022/11/25 06:49:04;;;;;;;7.33;5.53;;;;;;;2.53;100.00;152014.56;5005520;28;20473;-84
2022/11/25 06:51:50;;;;;;;6.93;6.23;;;;;;;2.53;100.00;152014.56;4995174;28;20421;-85
2022/11/25 06:54:39;;;;;;;7.13;5.93;;;;;;;2.53;100.00;152014.56;5008991;28;20539;-85
2022/11/25 06:57:25;;;;;;;7.87;5.50;;;;;;;2.56;100.00;152022.28;4995441;28;20515;-86
2022/11/25 07:00:11;;;;;;;10.47;5.87;;;;;;;2.61;100.00;152035.13;4999829;28;20504;-85
2022/11/25 07:02:57;;;;;;;11.73;6.63;;;;;;;2.62;100.00;152037.72;5013468;28;20447;-86
2022/11/25 07:05:43;;;;;;;5.93;5.30;;;;;;;2.65;100.00;152046.69;4994474;28;20449;-86
2022/11/25 07:08:28;;;;;;;9.03;7.00;;;;;;;2.71;100.00;152062.16;5003411;28;20971;-86
2022/11/25 07:11:17;;;;;;;10.17;6.50;;;;;;;2.73;100.00;152067.28;4994266;28;20462;-86
2022/11/25 07:14:04;;;;;;;9.97;6.00;;;;;;;2.83;100.00;152093.00;4996306;28;20768;-86
2022/11/25 07:16:49;;;;;;;5.83;5.23;;;;;;;2.91;100.00;152113.56;4994765;28;20489;-86
2022/11/25 07:19:34;;;;;;;9.00;5.43;;;;;;;2.98;100.00;152131.63;4995560;28;20456;-86
2022/11/25 07:22:19;;;;;;;6.93;5.37;;;;;;;3.07;100.00;152153.50;4990933;28;20592;-86
2022/11/25 07:25:06;;;;;;;6.30;4.90;;;;;;;3.13;100.00;152167.63;4994194;28;20619;-86
2022/11/25 07:27:54;;;;;;;6.30;5.30;;;;;;;3.17;100.00;152177.94;4987397;28;20428;-86
2022/11/25 07:30:39;;;;;;;6.60;5.00;;;;;;;3.23;100.00;152193.41;4994362;28;20592;-86
2022/11/25 07:33:25;;;;;;;9.50;5.43;;;;;;;3.30;100.00;152211.41;4995109;28;20451;-86
2022/11/25 07:36:11;;;;;;;5.50;4.77;;;;;;;3.38;100.00;152233.28;4992956;28;21015;-86
2022/11/25 07:38:58;;;;;;;5.87;4.13;;;;;;;3.41;100.00;152239.72;4987699;28;20794;-87
2022/11/25 07:41:43;;;;;;;8.90;6.10;;;;;;;3.48;100.00;152257.72;4996169;28;20416;-86
2022/11/25 07:44:30;;;;;;;5.40;4.90;;;;;;;3.53;100.00;152270.59;4985172;28;20465;-87
2022/11/25 07:47:29;;;;;;;9.10;5.10;;;;;;;3.56;100.00;152279.63;4994698;28;20595;-87
2022/11/25 07:50:14;;;;;;;5.50;4.80;;;;;;;3.62;100.00;152293.78;4977764;28;21188;-86
2022/11/25 07:52:59;;;;;;;7.40;5.53;;;;;;;3.64;100.00;152298.91;4987846;28;20448;-86
2022/11/25 07:55:44;;;;;;;8.80;6.17;;;;;;;3.69;100.00;152313.09;4995533;28;20527;-86
2022/11/25 07:58:30;;;;;;;7.33;5.73;;;;;;;3.71;100.00;152315.69;4988403;28;20464;-86
2022/11/25 08:01:18;;;;;;;6.87;5.33;;;;;;;3.74;100.00;152323.34;4996459;28;20527;-86
2022/11/25 08:04:03;;;;;;;6.63;5.03;;;;;;;3.77;100.00;152331.09;4989066;28;20912;-86
2022/11/25 08:06:51;;;;;;;8.23;5.43;;;;;;;3.76;100.00;152329.78;4991823;28;20445;-86
2022/11/25 08:09:36;;;;;;;5.73;5.03;;;;;;;3.79;100.00;152336.22;4997568;28;20459;-86
2022/11/25 08:12:22;;;;;;;5.90;4.53;;;;;;;3.84;100.00;152350.41;4987841;28;21026;-86
2022/11/25 08:15:08;;;;;;;6.33;5.30;;;;;;;3.85;100.00;152351.69;4976986;28;20972;-86
2022/11/25 08:17:55;;;;;;;6.43;4.97;;;;;;;3.87;100.00;152356.81;4976976;28;20458;-86
2022/11/25 08:20:40;;;;;;;7.33;4.60;;;;;;;3.90;100.00;152364.56;4996414;28;20816;-86
2022/11/25 08:23:26;;;;;;;5.80;4.70;;;;;;;3.94;100.00;152376.19;4990317;28;20982;-87
2022/11/25 08:26:13;;;;;;;5.87;3.90;;;;;;;3.99;100.00;152387.75;4976538;28;20399;-86
2022/11/25 08:28:58;;;;;;;5.83;4.17;;;;;;;4.02;100.00;152395.50;4990934;28;20951;-86
2022/11/25 08:31:44;;;;;;;5.90;4.43;;;;;;;4.03;100.00;152398.03;4981858;28;20784;-86
2022/11/25 08:34:31;;;;;;;7.43;4.53;;;;;;;4.08;100.00;152410.91;4999546;28;20448;-86
2022/11/25 08:37:20;;;;;;;5.23;4.27;;;;;;;4.15;100.00;152428.97;4999469;28;20531;-86
2022/11/25 08:40:07;;;;;;;5.33;4.40;;;;;;;4.19;100.00;152439.25;4994812;28;20444;-86
2022/11/25 08:42:52;;;;;;;6.23;3.97;;;;;;;4.30;100.00;152467.59;5004885;28;20946;-86
2022/11/25 08:45:38;;;;;;;4.27;3.60;;;;;;;4.37;100.00;152485.63;5008067;28;20449;-86
2022/11/25 08:48:24;;;;;;;7.03;4.87;;;;;;;4.43;100.00;152501.09;4994597;28;20464;-86
2022/11/25 08:51:12;;;;;;;7.03;4.60;;;;;;;4.48;100.00;152513.97;4996188;28;20514;-86
2022/11/25 08:53:58;;;;;;;5.60;4.50;;;;;;;4.52;100.00;152524.28;4992226;28;20594;-86
2022/11/25 08:56:43;;;;;;;6.47;4.77;;;;;;;4.57;100.00;152537.19;4986662;28;20517;-86
2022/11/25 08:59:28;;;;;;;5.63;4.73;;;;;;;4.61;100.00;152547.47;4995450;28;20788;-86
2022/11/25 09:02:16;;;;;;;8.40;5.40;;;;;;;4.66;100.00;152559.09;5004123;28;20442;-86
2022/11/25 09:05:01;;;;;;;8.70;5.00;;;;;;;4.68;100.00;152564.22;4976539;28;21069;-86
2022/11/25 09:07:48;;;;;;;7.60;5.10;;;;;;;4.71;100.00;152573.22;4985139;28;20453;-86
2022/11/25 09:10:34;;;;;;;7.77;4.90;;;;;;;4.71;100.00;152571.97;4995515;28;20602;-86
2022/11/25 09:13:20;;;;;;;5.80;4.73;;;;;;;4.72;100.00;152575.81;4980358;28;20811;-86
2022/11/25 09:16:07;;;;;;;7.13;4.40;;;;;;;4.81;100.00;152599.03;4997173;28;20437;-86
2022/11/25 09:18:52;;;;;;;5.60;4.50;;;;;;;4.91;100.00;152623.50;4990480;28;20465;-86
2022/11/25 09:21:38;;;;;;;5.90;5.10;;;;;;;5.00;100.00;152645.41;4992549;28;20433;-87
2022/11/25 09:24:24;;;;;;;7.33;4.93;;;;;;;5.02;100.00;152650.56;4992848;28;20453;-86
2022/11/25 09:27:10;;;;;;;6.30;4.60;;;;;;;5.05;100.00;152658.31;4984826;28;20951;-86
2022/11/25 09:29:55;;;;;;;7.60;5.30;;;;;;;5.17;100.00;152689.22;5005407;28;20473;-86
2022/11/25 09:32:41;;;;;;;10.20;5.07;;;;;;;5.28;100.00;152717.59;4992178;28;20798;-86
2022/11/25 09:35:26;;;;;;;7.93;5.33;;;;;;;5.30;100.00;152722.72;5000930;28;20573;-86
2022/11/25 09:38:12;;;;;;;5.80;4.50;;;;;;;5.34;100.00;152733.06;4972091;28;20500;-86
2022/11/25 09:41:02;;;;;;;6.43;4.77;;;;;;;5.40;100.00;152749.81;4991388;28;20437;-86
2022/11/25 09:47:19;;;;;;;4.80;4.30;;;;;;;5.64;100.00;152809.16;4935354;29;20503;-86
2022/11/25 09:50:14;;;;;;;8.47;5.50;;;;;;;5.70;100.00;152825.88;4950001;29;20989;-86
2022/11/25 09:53:05;;;;;;;9.40;7.80;;;;;;;5.80;100.00;152851.66;4985583;28;20528;-86
2022/11/25 09:55:51;;;;;;;8.00;5.97;;;;;;;5.84;100.00;152862.00;4993456;28;20441;-86
2022/11/25 09:58:43;;;;;;;6.97;4.30;;;;;;;5.86;100.00;152865.91;4971937;28;20992;-86
2022/11/25 10:01:30;;;;;;;6.40;4.47;;;;;;;5.91;100.00;152880.09;4984741;28;20441;-86
2022/11/25 10:04:21;;;;;;;8.03;4.30;;;;;;;5.93;100.00;152885.25;4992816;28;20444;-86
2022/11/25 10:07:14;;;;;;;6.20;4.80;;;;;;;6.02;100.00;152908.50;4991985;28;20910;-87
2022/11/25 10:10:00;;;;;;;9.77;5.20;;;;;;;6.08;100.00;152923.97;4990199;28;20461;-86
2022/11/25 10:12:46;;;;;;;8.07;7.27;;;;;;;6.07;100.00;152921.38;4957624;28;21102;-86
2022/11/25 10:15:36;;;;;;;6.77;4.90;;;;;;;6.08;100.00;152922.69;4958963;28;20445;-86
2022/11/25 10:18:29;;;;;;;8.30;6.37;;;;;;;6.21;100.00;152954.94;4972261;28;20561;-86
2022/11/25 10:21:14;;;;;;;11.07;8.27;;;;;;;6.24;100.00;152963.97;4973229;28;21132;-86
2022/11/25 10:24:00;;;;;;;10.67;8.53;;;;;;;6.28;100.00;152974.28;4972954;28;20904;-86
2022/11/25 10:26:48;;;;;;;12.80;9.10;;;;;;;6.31;100.00;152980.72;4977512;28;20457;-86
2022/11/25 10:29:37;;;;;;;11.00;7.87;;;;;;;6.42;100.00;153010.41;4977636;28;20442;-86
2022/11/25 10:32:25;;;;;;;14.77;10.33;;;;;;;6.46;100.00;153019.47;4992034;28;20421;-86
2022/11/25 10:35:20;;;;;;;13.03;9.93;;;;;;;6.53;100.00;153037.50;4985329;28;20469;-86
2022/11/25 10:38:07;;;;;;;21.90;11.30;;;;;;;6.61;100.00;153058.16;4972893;28;20462;-86
2022/11/25 10:40:55;;;;;;;14.10;8.93;;;;;;;6.77;100.00;153099.47;4973125;28;20434;-86
2022/11/25 10:43:42;;;;;;;11.47;8.67;;;;;;;6.80;100.00;153107.22;4974128;28;20508;-87
2022/11/25 10:46:34;;;;;;;10.10;7.90;;;;;;;6.91;100.00;153135.59;4966339;28;20585;-86
2022/11/25 10:49:27;;;;;;;11.43;8.40;;;;;;;7.05;100.00;153170.44;4977717;28;20532;-87
2022/11/25 10:52:13;;;;;;;6.90;6.10;;;;;;;7.23;100.00;153218.22;4973346;28;20427;-86
2022/11/25 10:55:09;;;;;;;8.67;6.70;;;;;;;7.22;100.00;153215.66;4971788;28;20976;-86
2022/11/25 10:57:56;;;;;;;9.43;7.47;;;;;;;7.29;100.00;153232.44;4965427;28;20517;-86
2022/11/25 11:00:42;;;;;;;6.67;6.07;;;;;;;7.40;100.00;153259.53;4969655;28;20481;-87
2022/11/25 11:03:27;;;;;;;11.63;8.13;;;;;;;7.41;100.00;153263.44;4938374;29;20786;-86
2022/11/25 11:06:32;;;;;;;11.40;8.87;;;;;;;7.41;100.00;153262.16;4954779;28;20473;-86
2022/11/25 11:09:34;;;;;;;8.63;6.67;;;;;;;7.47;100.00;153278.91;4976512;28;21018;-87
2022/11/25 11:12:23;;;;;;;5.70;4.87;;;;;;;7.48;100.00;153280.22;5000640;28;20519;-86
2022/11/25 11:15:18;;;;;;;5.50;3.73;;;;;;;7.49;100.00;153284.13;4990828;28;20452;-86
2022/11/25 11:18:20;;;;;;;4.73;3.50;;;;;;;7.46;100.00;153275.06;4991737;28;20456;-87
2022/11/25 11:21:07;;;;;;;4.43;3.27;;;;;;;7.50;100.00;153286.66;4990471;28;20451;-86
2022/11/25 11:23:55;;;;;;;5.17;3.77;;;;;;;7.56;100.00;153300.88;4994376;28;20423;-86
2022/11/25 11:26:41;;;;;;;4.40;3.57;;;;;;;7.52;100.00;153291.81;4997209;28;20799;-86
2022/11/25 11:29:26;;;;;;;3.37;3.07;;;;;;;7.47;100.00;153278.91;4985044;28;20540;-86
2022/11/25 11:32:22;;;;;;;3.50;3.17;;;;;;;7.47;100.00;153277.63;4991685;28;20486;-86
2022/11/25 11:35:14;;;;;;;4.30;2.97;;;;;;;7.50;100.00;153286.66;5007606;28;20464;-86
2022/11/25 11:38:04;;;;;;;3.90;3.20;;;;;;;7.50;100.00;153285.38;4982113;28;20472;-86
2022/11/25 11:40:53;;;;;;;6.53;3.60;;;;;;;7.50;100.00;153285.38;4990394;28;20488;-86
2022/11/25 11:43:53;;;;;;;4.00;3.07;;;;;;;7.44;100.00;153269.91;4982689;28;20560;-87
2022/11/25 11:46:47;;;;;;;4.33;3.13;;;;;;;7.39;100.00;153257.00;4975441;28;20410;-87
2022/11/25 11:49:50;;;;;;;3.43;2.50;;;;;;;7.38;100.00;153254.41;4983305;28;20960;-86
2022/11/25 11:52:48;;;;;;;4.40;2.80;;;;;;;7.42;100.00;153266.00;4981051;28;20517;-86
2022/11/25 11:55:45;;;;;;;5.13;3.87;;;;;;;7.46;100.00;153275.06;4991138;28;20813;-86
2022/11/25 11:58:42;;;;;;;5.20;4.07;;;;;;;7.73;100.00;153344.81;4993123;28;20464;-86
2022/11/25 12:01:40;;;;;;;6.80;4.83;;;;;;;7.61;100.00;153315.09;4979639;28;20443;-86
2022/11/25 12:04:28;;;;;;;5.67;5.10;;;;;;;7.54;100.00;153295.72;5009259;28;20432;-86
2022/11/25 12:07:18;;;;;;;9.00;5.90;;;;;;;7.47;100.00;153277.63;4987034;28;20441;-86
2022/11/25 12:10:09;;;;;;;7.63;5.23;;;;;;;7.39;100.00;153258.25;5003323;28;20789;-86
2022/11/25 12:13:00;;;;;;;7.23;4.63;;;;;;;7.37;100.00;153253.09;5002855;28;20472;-86
2022/11/25 12:15:51;;;;;;;5.70;4.27;;;;;;;7.35;100.00;153249.25;4996159;28;20436;-86
2022/11/25 12:18:45;;;;;;;6.10;4.93;;;;;;;7.32;100.00;153241.47;4986483;28;20548;-86
2022/11/25 12:21:37;;;;;;;8.07;4.67;;;;;;;7.30;100.00;153236.34;4985152;28;20456;-86
2022/11/25 12:24:26;;;;;;;6.20;4.93;;;;;;;7.31;100.00;153237.59;4993462;28;20453;-86
2022/11/25 12:27:15;;;;;;;6.13;4.30;;;;;;;7.32;100.00;153240.19;4990732;28;20417;-86
2022/11/25 12:30:05;;;;;;;7.97;5.63;;;;;;;7.31;100.00;153238.88;5003521;28;20509;-86
2022/11/25 12:33:03;;;;;;;7.13;5.00;;;;;;;7.34;100.00;153246.63;5007508;28;20436;-86
2022/11/25 12:35:54;;;;;;;8.30;6.60;;;;;;;7.40;100.00;153259.53;4993170;28;20594;-86
2022/11/25 12:38:44;;;;;;;8.67;6.17;;;;;;;7.39;100.00;153257.00;4974676;28;20542;-86
2022/11/25 12:41:37;;;;;;;10.40;6.40;;;;;;;7.37;100.00;153253.09;4985073;28;20802;-86
2022/11/25 12:44:25;;;;;;;9.33;6.83;;;;;;;7.39;100.00;153257.00;4992952;28;20956;-86
2022/11/25 12:47:11;;;;;;;7.73;5.00;;;;;;;7.43;100.00;153267.31;4991984;28;20437;-86
2022/11/25 12:49:58;;;;;;;6.47;5.27;;;;;;;7.46;100.00;153276.34;4998946;28;20526;-86
2022/11/25 12:52:51;;;;;;;5.07;4.03;;;;;;;7.51;100.00;153289.28;4999286;28;20448;-86
2022/11/25 12:55:38;;;;;;;4.73;3.40;;;;;;;7.53;100.00;153293.13;4980748;28;20443;-84
2022/11/25 12:58:45;;;;;;;4.53;4.03;;;;;;;7.55;100.00;153299.59;4984236;28;20621;-87
2022/11/25 13:01:54;;;;;;;7.73;6.93;;;;;;;7.59;100.00;153308.63;4989181;28;20552;-87
2022/11/25 13:05:13;;;;;;;7.37;5.57;;;;;;;7.64;100.00;153321.56;4987909;28;20642;-86
2022/11/25 13:08:07;;;;;;;7.73;5.77;;;;;;;7.57;100.00;153304.72;4991457;28;20868;-87
2022/11/25 13:11:03;;;;;;;9.20;6.23;;;;;;;7.52;100.00;153290.56;4988573;28;20464;-86